createdAt,value
2023-12-23T00:05:20.973Z,2.60
2023-12-23T00:15:25.146Z,2.60
2023-12-23T00:25:28.943Z,2.40
2023-12-23T00:35:32.843Z,2.40
2023-12-23T00:45:37.559Z,2.20
2023-12-23T00:55:41.781Z,2.10
2023-12-23T01:05:45.707Z,2.20
2023-12-23T01:15:49.824Z,2.20
2023-12-23T01:25:53.923Z,2.30
2023-12-23T01:35:57.941Z,2.30
2023-12-23T01:46:03.028Z,2.30
2023-12-23T01:56:07.894Z,2.00
2023-12-23T02:06:11.831Z,2.00
2023-12-23T02:16:17.225Z,2.00
2023-12-23T02:26:25.124Z,1.90
2023-12-23T02:36:29.076Z,1.70
2023-12-23T02:46:33.692Z,1.70
2023-12-23T02:56:37.577Z,1.60
2023-12-23T03:06:41.417Z,1.70
2023-12-23T03:16:45.290Z,1.30
2023-12-23T03:26:49.270Z,1.30
2023-12-23T03:36:53.196Z,1.40
2023-12-23T03:46:57.888Z,1.40
2023-12-23T03:57:02.102Z,1.40
2023-12-23T04:07:06.643Z,1.30
2023-12-23T04:17:10.668Z,1.50
2023-12-23T04:27:14.976Z,1.40
2023-12-23T04:37:19.284Z,2.40
2023-12-23T04:47:23.898Z,1.50
2023-12-23T04:57:29.586Z,1.40
2023-12-23T05:07:36.088Z,1.60
2023-12-23T05:17:40.214Z,1.80
2023-12-23T05:27:45.576Z,1.40
2023-12-23T05:37:49.878Z,1.30
2023-12-23T05:47:54.843Z,1.20
2023-12-23T05:57:58.945Z,1.60
2023-12-23T06:08:03.891Z,1.50
2023-12-23T06:18:08.122Z,1.30
2023-12-23T06:28:12.136Z,1.30
2023-12-23T06:38:17.572Z,1.30
2023-12-23T06:48:21.656Z,1.10
2023-12-23T06:58:28.372Z,1.20
2023-12-23T07:08:32.346Z,1.30
2023-12-23T07:18:36.336Z,1.80
2023-12-23T07:28:40.320Z,1.50
2023-12-23T07:38:44.465Z,1.20
2023-12-23T07:48:48.683Z,1.40
2023-12-23T07:58:53.777Z,1.30
2023-12-23T08:08:57.660Z,1.50
2023-12-23T08:19:08.380Z,1.50
2023-12-23T08:29:12.211Z,2.40
2023-12-23T08:39:16.257Z,2.10
2023-12-23T08:49:21.357Z,2.00
2023-12-23T08:59:25.391Z,2.20
2023-12-23T09:09:29.393Z,2.60
2023-12-23T09:19:34.113Z,2.80
2023-12-23T09:29:38.078Z,2.20
2023-12-23T09:39:41.885Z,2.30
2023-12-23T09:49:45.961Z,2.80
2023-12-23T09:59:52.463Z,2.50
2023-12-23T10:09:56.327Z,2.80
2023-12-23T10:20:00.620Z,2.60
2023-12-23T10:30:10.296Z,3.10
2023-12-23T10:40:19.279Z,2.70
2023-12-23T10:50:24.795Z,2.40
2023-12-23T11:00:28.969Z,2.60
2023-12-23T11:10:38.040Z,2.60
2023-12-23T11:20:51.568Z,2.50
2023-12-23T11:31:00.776Z,2.50
2023-12-23T11:41:05.783Z,3.40
2023-12-23T11:51:11.901Z,2.80
2023-12-23T12:01:15.883Z,2.60
2023-12-23T12:11:19.859Z,2.80
2023-12-23T12:21:24.498Z,2.70
2023-12-23T12:31:28.950Z,3.20
2023-12-23T12:41:38.661Z,3.20
2023-12-23T12:51:43.772Z,3.10
2023-12-23T13:01:47.757Z,3.10
2023-12-23T13:11:52.009Z,3.30
2023-12-23T13:21:55.962Z,3.10
2023-12-23T13:32:01.038Z,3.40
2023-12-23T13:42:05.851Z,3.60
2023-12-23T13:52:09.995Z,3.30
2023-12-23T14:02:13.886Z,6.50
2023-12-23T14:12:18.652Z,4.20
2023-12-23T14:22:22.633Z,3.40
2023-12-23T14:32:26.812Z,3.80
2023-12-23T14:42:32.175Z,4.40
2023-12-23T14:52:36.122Z,4.60
2023-12-23T15:02:41.808Z,3.90
2023-12-23T15:12:46.629Z,4.90
2023-12-23T15:22:50.725Z,4.70
2023-12-23T15:32:58.075Z,4.60
2023-12-23T15:43:02.055Z,6.00
2023-12-23T15:53:06.031Z,4.40
2023-12-23T16:03:10.753Z,4.80
2023-12-23T16:13:15.576Z,4.20
2023-12-23T16:23:19.835Z,4.10
2023-12-23T16:33:23.986Z,5.50
2023-12-23T16:43:28.185Z,4.90
2023-12-23T16:53:32.237Z,5.00
2023-12-23T17:03:36.171Z,4.90
2023-12-23T17:13:41.695Z,4.50
2023-12-23T17:23:46.093Z,7.10
2023-12-23T17:33:50.104Z,4.90
2023-12-23T17:43:54.129Z,4.10
2023-12-23T17:53:58.626Z,3.80
2023-12-23T18:04:02.554Z,5.50
2023-12-23T18:14:06.651Z,4.70
2023-12-23T18:24:13.601Z,4.50
2023-12-23T18:34:17.791Z,3.90
2023-12-23T18:44:23.097Z,4.90
2023-12-23T18:54:27.110Z,4.00
2023-12-23T19:04:31.226Z,3.50
2023-12-23T19:14:35.334Z,4.40
2023-12-23T19:24:41.753Z,3.60
2023-12-23T19:34:45.819Z,4.10
2023-12-23T19:44:54.642Z,3.40
2023-12-23T19:55:00.690Z,3.40
2023-12-23T20:05:06.551Z,3.90
2023-12-23T20:15:11.404Z,3.70
2023-12-23T20:25:15.741Z,4.00
2023-12-23T20:35:20.404Z,3.90
2023-12-23T20:45:25.736Z,4.10
2023-12-23T20:55:29.832Z,3.70
2023-12-23T21:05:34.249Z,3.70
2023-12-23T21:15:38.981Z,4.10
2023-12-23T21:25:45.529Z,4.00
2023-12-23T21:35:50.036Z,4.00
2023-12-23T21:45:55.124Z,3.90
2023-12-23T21:56:00.105Z,3.80
2023-12-23T22:06:05.466Z,3.90
2023-12-23T22:16:11.322Z,3.70
2023-12-23T22:26:15.233Z,3.70
2023-12-23T22:36:21.318Z,3.90
2023-12-23T22:46:25.811Z,3.60
2023-12-23T22:56:29.831Z,3.60
2023-12-23T23:06:33.821Z,3.60
2023-12-23T23:16:38.316Z,3.60
2023-12-23T23:26:42.166Z,3.40
2023-12-23T23:36:46.047Z,3.80
2023-12-23T23:46:50.708Z,3.60
2023-12-23T23:56:54.567Z,4.30
